createdAt,value
2019-04-27T00:01:13.646Z,100758.70
2019-04-27T00:03:50.440Z,100750.32
2019-04-27T00:06:19.560Z,100737.05
2019-04-27T00:08:54.640Z,100726.88
2019-04-27T00:11:42.207Z,100743.28
2019-04-27T00:14:15.052Z,100737.09
2019-04-27T00:17:07.007Z,100733.53
2019-04-27T00:20:07.373Z,100722.91
2019-04-27T00:22:47.560Z,100719.84
2019-04-27T00:25:16.638Z,100715.85
2019-04-27T00:27:45.616Z,100720.75
2019-04-27T00:30:15.411Z,100722.50
2019-04-27T00:32:44.485Z,100715.86
2019-04-27T00:35:16.657Z,100716.77
2019-04-27T00:37:53.606Z,100720.30
2019-04-27T00:40:41.679Z,100719.88
2019-04-27T00:43:10.786Z,100719.88
2019-04-27T00:45:39.858Z,100707.92
2019-04-27T00:48:08.921Z,100705.69
2019-04-27T00:50:38.013Z,100699.05
2019-04-27T00:53:07.074Z,100701.71
2019-04-27T00:55:37.724Z,100703.08
2019-04-27T00:58:18.128Z,100705.73
2019-04-27T01:01:05.132Z,100693.33
2019-04-27T01:03:56.240Z,100698.22
2019-04-27T01:06:25.328Z,100688.02
2019-04-27T01:08:54.388Z,100680.05
2019-04-27T01:11:24.959Z,100683.61
2019-04-27T01:13:54.016Z,100687.59
2019-04-27T01:16:24.215Z,100682.25
2019-04-27T01:18:53.552Z,100689.34
2019-04-27T01:21:22.630Z,100692.00
2019-04-27T01:23:51.696Z,100695.98
2019-04-27T01:26:55.247Z,100693.32
2019-04-27T01:29:26.283Z,100698.63
2019-04-27T01:31:55.661Z,100700.42
2019-04-27T01:34:24.722Z,100693.33
2019-04-27T01:36:53.731Z,100695.98
2019-04-27T01:39:22.964Z,100690.67
2019-04-27T01:41:52.046Z,100700.01
2019-04-27T01:44:21.104Z,100700.01
2019-04-27T01:46:50.187Z,100695.12
2019-04-27T01:49:19.499Z,100700.88
2019-04-27T01:51:49.245Z,100693.78
2019-04-27T01:54:20.088Z,100703.50
2019-04-27T01:56:49.368Z,100707.48
2019-04-27T01:59:19.906Z,100706.61
2019-04-27T02:02:08.778Z,100708.39
2019-04-27T02:04:49.315Z,100707.06
2019-04-27T02:07:19.203Z,100711.45
2019-04-27T02:09:48.721Z,100718.97
2019-04-27T02:12:19.249Z,100726.06
2019-04-27T02:14:49.134Z,100719.84
2019-04-27T02:17:18.799Z,100711.45
2019-04-27T02:19:49.386Z,100710.98
2019-04-27T02:22:18.814Z,100705.67
2019-04-27T02:24:49.254Z,100714.06
2019-04-27T02:27:20.600Z,100706.55
2019-04-27T02:30:07.598Z,100706.96
2019-04-27T02:32:59.322Z,100698.11
2019-04-27T02:35:30.047Z,100695.47
2019-04-27T02:38:00.479Z,100695.92
2019-04-27T02:41:06.236Z,100696.38
2019-04-27T02:44:09.817Z,100691.94
2019-04-27T02:46:39.614Z,100691.48
2019-04-27T02:49:10.554Z,100690.16
2019-04-27T02:51:46.577Z,100688.41
2019-04-27T02:54:15.633Z,100691.53
2019-04-27T02:56:44.682Z,100691.53
2019-04-27T02:59:13.778Z,100690.20
2019-04-27T03:01:50.291Z,100695.52
2019-04-27T03:04:20.579Z,100693.73
2019-04-27T03:06:50.131Z,100692.88
2019-04-27T03:09:20.520Z,100688.47
2019-04-27T03:11:50.188Z,100693.33
2019-04-27T03:14:56.615Z,100693.79
2019-04-27T03:17:31.277Z,100693.33
2019-04-27T03:20:14.941Z,100688.02
2019-04-27T03:22:55.674Z,100679.63
2019-04-27T03:25:34.664Z,100680.96
2019-04-27T03:28:07.443Z,100677.44
2019-04-27T03:30:36.757Z,100671.21
2019-04-27T03:33:05.897Z,100671.21
2019-04-27T03:35:36.692Z,100671.67
2019-04-27T03:38:05.773Z,100680.09
2019-04-27T03:40:35.226Z,100676.98
2019-04-27T03:43:12.604Z,100678.77
2019-04-27T03:45:41.685Z,100680.97
2019-04-27T03:48:10.745Z,100673.00
2019-04-27T03:51:02.651Z,100672.13
2019-04-27T03:53:36.300Z,100673.00
2019-04-27T03:56:19.974Z,100667.73
2019-04-27T03:58:52.354Z,100676.57
2019-04-27T04:01:21.414Z,100681.01
2019-04-27T04:03:50.526Z,100691.17
2019-04-27T04:06:19.647Z,100692.51
2019-04-27T04:08:50.257Z,100689.84
2019-04-27T04:11:25.312Z,100691.63
2019-04-27T04:19:19.711Z,100702.67
2019-04-27T04:21:50.390Z,100696.48
2019-04-27T04:24:20.095Z,100698.27
2019-04-27T04:26:50.303Z,100704.45
2019-04-27T04:29:20.427Z,100698.69
2019-04-27T04:31:50.390Z,100700.02
2019-04-27T04:34:20.098Z,100695.61
2019-04-27T04:36:52.469Z,100699.14
2019-04-27T04:39:21.575Z,100705.78
2019-04-27T04:42:05.919Z,100705.33
2019-04-27T04:44:50.319Z,100698.27
2019-04-27T04:47:40.761Z,100703.58
2019-04-27T04:50:14.756Z,100701.80
2019-04-27T04:52:42.441Z,100706.23
2019-04-27T04:55:11.134Z,100702.25
2019-04-27T04:57:40.246Z,100699.59
2019-04-27T05:00:10.052Z,100700.02
2019-04-27T05:02:39.811Z,100698.27
2019-04-27T05:05:09.510Z,100697.36
2019-04-27T05:07:38.902Z,100700.02
2019-04-27T05:10:09.074Z,100706.23
2019-04-27T05:12:38.776Z,100698.69
2019-04-27T05:15:09.109Z,100696.03
2019-04-27T05:17:39.928Z,100691.18
2019-04-27T05:20:29.449Z,100700.47
2019-04-27T05:22:59.433Z,100694.74
2019-04-27T05:25:28.787Z,100697.39
2019-04-27T05:27:59.563Z,100697.81
2019-04-27T05:30:28.865Z,100697.81
2019-04-27T05:32:58.563Z,100687.66
2019-04-27T05:35:29.663Z,100693.41
2019-04-27T05:38:02.526Z,100691.64
2019-04-27T05:40:31.173Z,100693.41
2019-04-27T05:43:00.353Z,100693.41
2019-04-27T05:46:35.741Z,100688.56
2019-04-27T05:49:07.135Z,100682.80
2019-04-27T05:51:38.169Z,100682.80
2019-04-27T05:54:09.023Z,100682.80
2019-04-27T05:56:39.073Z,100683.22
2019-04-27T05:59:09.154Z,100681.47
2019-04-27T06:01:39.080Z,100686.32
2019-04-27T06:04:09.024Z,100682.80
2019-04-27T06:06:39.879Z,100687.19
2019-04-27T06:09:09.608Z,100686.28
2019-04-27T06:11:39.955Z,100680.97
2019-04-27T06:14:09.771Z,100684.50
2019-04-27T06:16:39.438Z,100682.28
2019-04-27T06:19:09.620Z,100676.97
2019-04-27T06:21:40.105Z,100681.83
2019-04-27T06:24:09.409Z,100680.45
2019-04-27T06:26:39.917Z,100680.45
2019-04-27T06:29:09.574Z,100683.55
2019-04-27T06:31:39.693Z,100683.52
2019-04-27T06:34:09.809Z,100681.72
2019-04-27T06:36:39.130Z,100677.73
2019-04-27T06:39:09.773Z,100676.84
2019-04-27T06:41:40.073Z,100674.19
2019-04-27T06:44:11.293Z,100677.25
2019-04-27T06:46:40.567Z,100673.25
2019-04-27T06:49:11.131Z,100676.31
2019-04-27T06:51:40.436Z,100670.53
2019-04-27T06:54:09.534Z,100666.53
2019-04-27T06:56:39.038Z,100666.08
2019-04-27T06:59:08.721Z,100668.72
2019-04-27T07:01:38.980Z,100673.57
2019-04-27T07:04:08.829Z,100672.22
2019-04-27T07:06:52.838Z,100665.55
2019-04-27T07:09:10.845Z,100669.93
2019-04-27T07:11:40.044Z,100666.78
2019-04-27T07:14:11.533Z,100665.40
2019-04-27T07:16:40.265Z,100666.25
2019-04-27T07:19:09.562Z,100669.76
2019-04-27T07:21:39.971Z,100676.38
2019-04-27T07:24:09.220Z,100673.69
2019-04-27T07:26:39.052Z,100671.42
2019-04-27T07:29:09.576Z,100666.53
2019-04-27T07:31:40.104Z,100668.70
2019-04-27T07:34:09.553Z,100664.66
2019-04-27T07:36:39.293Z,100657.95
2019-04-27T07:39:11.501Z,100661.92
2019-04-27T07:41:40.248Z,100661.39
2019-04-27T07:44:14.850Z,100662.66
2019-04-27T07:46:43.936Z,100664.34
2019-04-27T07:49:13.036Z,100649.64
2019-04-27T07:51:42.112Z,100658.88
2019-04-27T07:54:11.223Z,100652.56
2019-04-27T07:56:40.309Z,100650.31
2019-04-27T07:59:09.416Z,100647.12
2019-04-27T08:01:39.304Z,100643.47
2019-04-27T08:04:09.171Z,100645.58
2019-04-27T08:06:38.752Z,100648.50
2019-04-27T08:09:09.415Z,100642.62
2019-04-27T08:11:39.197Z,100638.53
2019-04-27T08:14:08.845Z,100641.03
2019-04-27T08:16:38.794Z,100638.27
2019-04-27T08:19:09.941Z,100633.27
2019-04-27T08:21:44.282Z,100631.39
2019-04-27T08:24:11.229Z,100632.09
2019-04-27T08:26:50.964Z,100631.06
2019-04-27T08:29:45.115Z,100632.67
2019-04-27T08:32:17.069Z,100629.81
2019-04-27T08:34:46.187Z,100625.12
2019-04-27T08:37:15.277Z,100620.53
2019-04-27T08:39:44.403Z,100628.36
2019-04-27T08:42:13.498Z,100624.72
2019-04-27T08:44:42.610Z,100627.72
2019-04-27T08:47:11.697Z,100621.86
2019-04-27T08:49:40.774Z,100612.45
2019-04-27T08:52:09.872Z,100612.75
2019-04-27T08:54:39.535Z,100617.44
2019-04-27T08:57:09.679Z,100618.58
2019-04-27T08:59:39.422Z,100623.66
2019-04-27T09:02:08.875Z,100624.34
2019-04-27T09:04:39.435Z,100620.22
2019-04-27T09:07:26.696Z,100620.50
2019-04-27T09:09:59.907Z,100615.80
2019-04-27T09:12:53.440Z,100616.91
2019-04-27T09:15:44.179Z,100617.62
2019-04-27T09:18:14.908Z,100621.80
2019-04-27T09:20:50.097Z,100611.23
2019-04-27T09:23:19.156Z,100603.25
2019-04-27T09:25:49.602Z,100602.09
2019-04-27T09:28:20.278Z,100602.34
2019-04-27T09:30:49.877Z,100607.02
2019-04-27T09:33:22.176Z,100606.86
2019-04-27T09:35:50.466Z,100605.38
2019-04-27T09:38:19.543Z,100603.48
2019-04-27T09:40:48.643Z,100597.94
2019-04-27T09:43:17.726Z,100591.05
2019-04-27T09:45:47.247Z,100594.12
2019-04-27T09:48:17.640Z,100592.16
2019-04-27T09:50:46.754Z,100578.47
2019-04-27T09:53:15.912Z,100583.67
2019-04-27T09:55:46.775Z,100583.55
2019-04-27T09:58:16.024Z,100582.83
2019-04-27T10:00:48.227Z,100583.05
2019-04-27T10:03:17.317Z,100577.01
2019-04-27T10:05:46.402Z,100570.69
2019-04-27T10:08:16.983Z,100569.61
2019-04-27T10:10:47.949Z,100569.61
2019-04-27T10:13:17.233Z,100570.95
2019-04-27T10:15:46.295Z,100567.35
2019-04-27T10:18:16.311Z,100569.56
2019-04-27T10:20:56.959Z,100569.56
2019-04-27T10:23:16.364Z,100562.20
2019-04-27T10:25:45.839Z,100563.36
2019-04-27T10:28:14.990Z,100557.78
2019-04-27T10:30:45.726Z,100562.53
2019-04-27T10:33:16.105Z,100551.41
2019-04-27T10:35:47.241Z,100553.78
2019-04-27T10:38:17.325Z,100552.08
2019-04-27T10:40:46.535Z,100548.78
2019-04-27T10:43:15.762Z,100549.50
2019-04-27T10:45:46.247Z,100550.59
2019-04-27T10:48:16.373Z,100544.66
2019-04-27T10:50:46.755Z,100539.44
2019-04-27T10:53:16.826Z,100544.09
2019-04-27T10:55:46.396Z,100541.98
2019-04-27T10:58:15.722Z,100539.72
2019-04-27T11:00:49.563Z,100540.05
2019-04-27T11:03:22.673Z,100528.17
2019-04-27T11:06:22.895Z,100523.31
2019-04-27T11:08:51.985Z,100525.00
2019-04-27T11:11:21.049Z,100522.56
2019-04-27T11:13:50.139Z,100520.04
2019-04-27T11:16:19.221Z,100524.43
2019-04-27T11:18:48.326Z,100514.96
2019-04-27T11:21:17.377Z,100518.52
2019-04-27T11:23:46.461Z,100515.51
2019-04-27T11:26:16.055Z,100515.08
2019-04-27T11:28:46.295Z,100509.48
2019-04-27T11:31:17.224Z,100509.64
2019-04-27T11:33:46.542Z,100501.67
2019-04-27T11:36:33.433Z,100504.03
2019-04-27T11:39:04.612Z,100498.81
2019-04-27T11:41:33.695Z,100495.67
2019-04-27T11:44:02.773Z,100498.07
2019-04-27T11:46:31.827Z,100496.46
2019-04-27T11:49:00.960Z,100500.49
2019-04-27T11:51:30.027Z,100496.94
2019-04-27T11:53:59.133Z,100495.23
2019-04-27T11:56:28.185Z,100494.92
2019-04-27T11:58:57.282Z,100498.78
2019-04-27T12:01:27.060Z,100492.99
2019-04-27T12:03:56.132Z,100488.41
2019-04-27T12:06:25.840Z,100490.45
2019-04-27T12:08:55.045Z,100482.39
2019-04-27T12:11:26.005Z,100484.16
2019-04-27T12:13:56.167Z,100484.36
2019-04-27T12:16:26.205Z,100480.01
2019-04-27T12:18:56.336Z,100485.02
2019-04-27T12:21:25.594Z,100481.12
2019-04-27T12:23:54.681Z,100483.02
2019-04-27T12:26:45.545Z,100476.90
2019-04-27T12:29:17.479Z,100489.79
2019-04-27T12:31:49.007Z,100484.11
2019-04-27T12:34:17.291Z,100474.53
2019-04-27T12:36:46.364Z,100480.00
2019-04-27T12:39:15.693Z,100485.02
2019-04-27T12:41:46.215Z,100470.19
2019-04-27T12:44:16.050Z,100480.24
2019-04-27T12:46:45.117Z,100468.91
2019-04-27T12:49:16.023Z,100462.03
2019-04-27T12:51:45.630Z,100465.34
2019-04-27T12:54:39.678Z,100463.61
2019-04-27T12:57:21.032Z,100461.55
2019-04-27T12:59:59.477Z,100455.93
2019-04-27T13:02:31.306Z,100455.20
2019-04-27T13:05:00.379Z,100452.31
2019-04-27T13:07:29.447Z,100455.91
2019-04-27T13:09:58.560Z,100452.73
2019-04-27T13:12:27.661Z,100450.11
2019-04-27T13:14:56.756Z,100445.88
2019-04-27T13:17:26.532Z,100445.88
2019-04-27T13:19:56.144Z,100445.14
2019-04-27T13:22:25.324Z,100430.45
2019-04-27T13:24:56.458Z,100436.52
2019-04-27T13:27:26.866Z,100441.40
2019-04-27T13:29:57.401Z,100438.69
2019-04-27T13:32:26.662Z,100434.03
2019-04-27T13:34:56.694Z,100430.94
2019-04-27T13:37:43.016Z,100435.56
2019-04-27T13:40:16.840Z,100437.05
2019-04-27T13:42:58.562Z,100439.91
2019-04-27T13:45:37.420Z,100436.72
2019-04-27T13:48:40.650Z,100435.85
2019-04-27T13:51:12.808Z,100433.92
2019-04-27T13:53:41.870Z,100433.80
2019-04-27T13:56:17.565Z,100423.53
2019-04-27T13:58:46.733Z,100420.75
2019-04-27T14:01:15.806Z,100429.56
2019-04-27T14:03:45.212Z,100423.25
2019-04-27T14:06:14.341Z,100419.63
2019-04-27T14:08:43.411Z,100406.67
2019-04-27T14:11:12.492Z,100398.41
2019-04-27T14:13:41.549Z,100391.45
2019-04-27T14:16:10.653Z,100384.66
2019-04-27T14:18:39.729Z,100369.77
2019-04-27T14:21:09.426Z,100378.95
2019-04-27T14:23:38.764Z,100378.83
2019-04-27T14:26:08.801Z,100382.40
2019-04-27T14:28:38.066Z,100375.59
2019-04-27T14:31:08.885Z,100375.67
2019-04-27T14:33:39.738Z,100383.36
2019-04-27T14:36:08.999Z,100372.20
2019-04-27T14:38:38.066Z,100373.49
2019-04-27T14:41:09.053Z,100370.05
2019-04-27T14:43:38.303Z,100365.89
2019-04-27T14:46:08.153Z,100370.36
2019-04-27T14:48:39.195Z,100363.44
2019-04-27T14:51:09.286Z,100359.89
2019-04-27T14:53:38.653Z,100355.58
2019-04-27T14:56:08.860Z,100358.20
2019-04-27T14:58:38.014Z,100353.44
2019-04-27T15:01:08.221Z,100365.87
2019-04-27T15:03:37.343Z,100357.02
2019-04-27T15:06:06.407Z,100360.09
2019-04-27T15:08:38.413Z,100362.38
2019-04-27T15:11:10.491Z,100368.98
2019-04-27T15:13:37.974Z,100375.84
2019-04-27T15:16:08.338Z,100378.48
2019-04-27T15:18:43.664Z,100388.39
2019-04-27T15:21:12.458Z,100387.59
2019-04-27T15:23:41.547Z,100398.30
2019-04-27T15:26:10.628Z,100399.95
2019-04-27T15:28:44.835Z,100409.79
2019-04-27T15:31:29.458Z,100413.73
2019-04-27T15:34:17.676Z,100423.98
2019-04-27T15:37:18.295Z,100422.52
2019-04-27T15:40:11.374Z,100433.95
2019-04-27T15:42:51.230Z,100440.95
2019-04-27T15:45:15.952Z,100454.06
2019-04-27T15:47:49.286Z,100454.84
2019-04-27T15:50:18.243Z,100460.76
2019-04-27T15:52:48.744Z,100469.06
2019-04-27T15:55:31.656Z,100468.89
2019-04-27T15:57:50.339Z,100477.53
2019-04-27T16:00:28.834Z,100482.56
2019-04-27T16:02:57.961Z,100477.50
2019-04-27T16:05:28.722Z,100484.94
2019-04-27T16:07:59.215Z,100490.05
2019-04-27T16:10:32.940Z,100489.76
2019-04-27T16:13:06.368Z,100484.94
2019-04-27T16:15:31.229Z,100491.15
2019-04-27T16:18:00.336Z,100484.41
2019-04-27T16:20:33.786Z,100479.48
2019-04-27T16:23:03.189Z,100476.00
2019-04-27T16:25:32.776Z,100471.94
2019-04-27T16:28:04.723Z,100472.29
2019-04-27T16:30:32.648Z,100470.89
2019-04-27T16:33:01.741Z,100473.45
2019-04-27T16:35:30.825Z,100469.84
2019-04-27T16:38:09.716Z,100474.37
2019-04-27T16:40:39.004Z,100477.02
2019-04-27T16:43:08.995Z,100474.72
2019-04-27T16:45:38.781Z,100470.78
2019-04-27T16:48:09.157Z,100471.59
2019-04-27T16:50:39.050Z,100473.88
2019-04-27T16:53:10.713Z,100475.25
2019-04-27T16:55:39.121Z,100482.39
2019-04-27T16:58:09.684Z,100486.42
2019-04-27T17:00:40.930Z,100484.86
2019-04-27T17:03:10.057Z,100488.97
2019-04-27T17:05:39.193Z,100484.70
2019-04-27T17:08:14.391Z,100486.99
2019-04-27T17:10:39.201Z,100491.45
2019-04-27T17:13:13.395Z,100492.38
2019-04-27T17:16:05.802Z,100491.48
2019-04-27T17:18:42.411Z,100486.63
2019-04-27T17:21:18.860Z,100498.67
2019-04-27T17:23:42.514Z,100492.44
2019-04-27T17:26:21.241Z,100486.17
2019-04-27T17:28:50.570Z,100495.95
2019-04-27T17:31:21.510Z,100502.63
2019-04-27T17:33:55.782Z,100498.64
2019-04-27T17:36:24.872Z,100499.11
2019-04-27T17:38:53.943Z,100500.00
2019-04-27T17:41:23.046Z,100504.03
2019-04-27T17:43:52.155Z,100508.61
2019-04-27T17:46:22.039Z,100507.87
2019-04-27T17:48:51.250Z,100516.86
2019-04-27T17:51:20.358Z,100521.91
2019-04-27T17:53:49.990Z,100525.60
2019-04-27T17:56:19.323Z,100520.83
2019-04-27T17:58:48.754Z,100524.91
2019-04-27T18:01:19.095Z,100536.58
2019-04-27T18:03:58.512Z,100538.05
2019-04-27T18:06:24.370Z,100539.97
2019-04-27T18:08:54.978Z,100540.94
2019-04-27T18:11:21.681Z,100543.70
2019-04-27T18:13:51.242Z,100541.58
2019-04-27T18:16:23.724Z,100546.48
2019-04-27T18:19:00.094Z,100539.84
2019-04-27T18:21:33.940Z,100537.58
2019-04-27T18:24:08.669Z,100539.85
2019-04-27T18:27:02.980Z,100545.64
2019-04-27T18:29:30.803Z,100538.93
2019-04-27T18:31:58.504Z,100546.91
2019-04-27T18:34:28.627Z,100549.55
2019-04-27T18:36:57.846Z,100548.66
2019-04-27T18:39:26.919Z,100550.02
2019-04-27T18:41:55.943Z,100554.41
2019-04-27T18:44:29.267Z,100547.72
2019-04-27T18:46:58.858Z,100550.83
2019-04-27T18:49:45.616Z,100555.70
2019-04-27T18:52:40.866Z,100554.83
2019-04-27T18:55:10.962Z,100549.53
2019-04-27T18:57:38.690Z,100555.78
2019-04-27T19:00:11.085Z,100568.67
2019-04-27T19:02:40.181Z,100568.65
2019-04-27T19:05:09.558Z,100581.99
2019-04-27T19:07:38.655Z,100589.16
2019-04-27T19:10:09.061Z,100601.23
2019-04-27T19:12:39.433Z,100605.41
2019-04-27T19:15:08.765Z,100606.61
2019-04-27T19:17:38.677Z,100610.39
2019-04-27T19:20:10.489Z,100607.50
2019-04-27T19:22:39.146Z,100609.39
2019-04-27T19:25:10.791Z,100613.05
2019-04-27T19:27:52.571Z,100608.70
2019-04-27T19:30:28.771Z,100612.31
2019-04-27T19:32:57.874Z,100615.03
2019-04-27T19:35:28.669Z,100620.38
2019-04-27T19:37:58.966Z,100616.42
2019-04-27T19:40:29.055Z,100612.06
2019-04-27T19:42:58.834Z,100616.11
2019-04-27T19:45:29.205Z,100624.56
2019-04-27T19:47:58.475Z,100624.58
2019-04-27T19:50:28.565Z,100621.05
2019-04-27T19:52:58.720Z,100619.32
2019-04-27T19:55:28.264Z,100620.66
2019-04-27T19:57:59.451Z,100623.32
2019-04-27T20:00:45.727Z,100626.90
2019-04-27T20:03:19.288Z,100628.24
2019-04-27T20:05:48.549Z,100632.23
2019-04-27T20:08:21.519Z,100629.59
2019-04-27T20:10:50.527Z,100627.84
2019-04-27T20:13:19.610Z,100635.41
2019-04-27T20:15:48.682Z,100637.15
2019-04-27T20:18:17.778Z,100639.81
2019-04-27T20:20:46.844Z,100644.70
2019-04-27T20:23:15.930Z,100653.13
2019-04-27T20:25:44.996Z,100654.46
2019-04-27T20:28:14.080Z,100649.61
2019-04-27T20:30:43.175Z,100657.99
2019-04-27T20:33:12.267Z,100656.70
2019-04-27T20:35:42.682Z,100659.36
2019-04-27T20:38:12.915Z,100664.22
2019-04-27T20:40:42.079Z,100662.02
2019-04-27T20:43:11.171Z,100669.10
2019-04-27T20:45:41.359Z,100659.36
2019-04-27T20:48:11.215Z,100663.34
2019-04-27T20:50:41.218Z,100667.32
2019-04-27T20:53:14.286Z,100665.09
2019-04-27T20:55:43.359Z,100666.45
2019-04-27T20:58:12.744Z,100666.90
2019-04-27T21:00:41.936Z,100662.47
2019-04-27T21:03:23.340Z,100672.20
2019-04-27T21:06:11.198Z,100680.16
2019-04-27T21:08:41.269Z,100682.36
2019-04-27T21:11:11.858Z,100682.39
2019-04-27T21:13:41.038Z,100681.94
2019-04-27T21:16:10.730Z,100683.72
2019-04-27T21:18:41.965Z,100687.67
2019-04-27T21:21:11.471Z,100691.22
2019-04-27T21:23:41.403Z,100689.02
2019-04-27T21:26:10.614Z,100685.47
2019-04-27T21:28:41.558Z,100693.88
2019-04-27T21:31:12.450Z,100685.02
2019-04-27T21:33:41.272Z,100695.21
2019-04-27T21:36:11.711Z,100690.33
2019-04-27T21:38:42.803Z,100693.44
2019-04-27T21:41:11.779Z,100697.84
2019-04-27T21:43:42.108Z,100697.87
2019-04-27T21:46:11.700Z,100691.66
2019-04-27T21:48:41.514Z,100700.94
2019-04-27T21:51:11.863Z,100694.75
2019-04-27T21:54:00.000Z,100706.69
2019-04-27T21:56:29.096Z,100708.92
2019-04-27T21:58:58.164Z,100712.91
2019-04-27T22:01:35.231Z,100724.39
2019-04-27T22:04:04.526Z,100720.84
2019-04-27T22:06:33.625Z,100733.69
2019-04-27T22:09:02.692Z,100727.06
2019-04-27T22:11:32.026Z,100731.47
2019-04-27T22:14:01.420Z,100734.58
2019-04-27T22:16:31.499Z,100736.33
2019-04-27T22:19:01.963Z,100733.22
2019-04-27T22:21:31.661Z,100744.30
2019-04-27T22:24:22.663Z,100742.52
2019-04-27T22:26:51.945Z,100750.47
2019-04-27T22:29:22.193Z,100750.93
2019-04-27T22:31:51.761Z,100743.84
2019-04-27T22:34:21.662Z,100746.07
2019-04-27T22:36:50.759Z,100741.64
2019-04-27T22:39:31.477Z,100747.39
2019-04-27T22:42:18.323Z,100751.38
2019-04-27T22:44:52.483Z,100753.13
2019-04-27T22:47:21.660Z,100756.23
2019-04-27T22:49:50.734Z,100754.48
2019-04-27T22:52:21.763Z,100758.00
2019-04-27T22:54:51.362Z,100762.88
2019-04-27T22:57:32.247Z,100765.53
2019-04-27T23:00:21.985Z,100762.00
2019-04-27T23:02:53.925Z,100768.60
2019-04-27T23:05:23.045Z,100765.95
2019-04-27T23:07:52.126Z,100769.05
2019-04-27T23:10:21.412Z,100768.63
2019-04-27T23:12:51.027Z,100773.48
2019-04-27T23:15:22.198Z,100775.25
2019-04-27T23:17:58.684Z,100775.25
2019-04-27T23:20:27.854Z,100780.10
2019-04-27T23:22:56.964Z,100774.36
2019-04-27T23:25:26.042Z,100770.83
2019-04-27T23:27:55.133Z,100772.59
2019-04-27T23:30:58.520Z,100770.79
2019-04-27T23:33:27.596Z,100767.27
2019-04-27T23:35:56.601Z,100768.58
2019-04-27T23:38:25.688Z,100771.68
2019-04-27T23:40:54.758Z,100776.11
2019-04-27T23:43:23.844Z,100775.22
2019-04-27T23:45:53.486Z,100778.29
2019-04-27T23:48:24.839Z,100776.97
2019-04-27T23:50:56.439Z,100776.55
2019-04-27T23:53:29.549Z,100778.30
2019-04-27T23:55:58.620Z,100774.77
2019-04-27T23:58:27.721Z,100773.00
